createdAt,value
2023-05-03T00:01:47.034Z,98.8
2023-05-03T00:04:13.194Z,98.7
2023-05-03T00:06:39.306Z,98.8
2023-05-03T00:09:04.217Z,98.3
2023-05-03T00:11:30.497Z,98.1
2023-05-03T00:13:56.616Z,98.4
2023-05-03T00:16:22.497Z,98.4
2023-05-03T00:18:48.669Z,98.5
2023-05-03T00:21:13.706Z,98.4
2023-05-03T00:23:39.892Z,98.4
2023-05-03T00:26:06.000Z,98.5
2023-05-03T00:28:32.098Z,98.5
2023-05-03T00:30:58.074Z,98.6
2023-05-03T00:33:24.329Z,98.6
2023-05-03T00:35:50.450Z,98.6
2023-05-03T00:38:16.559Z,98.3
2023-05-03T00:40:42.438Z,97.8
2023-05-03T00:43:08.648Z,98
2023-05-03T00:45:34.824Z,97.8
2023-05-03T00:48:00.835Z,97.8
2023-05-03T00:50:26.942Z,97.5
2023-05-03T00:52:52.079Z,97.7
2023-05-03T00:55:18.060Z,97.7
2023-05-03T00:57:44.278Z,97.8
2023-05-03T01:00:10.357Z,98.3
2023-05-03T01:02:36.506Z,98.3
2023-05-03T01:05:02.450Z,98.5
2023-05-03T01:07:28.536Z,98.6
2023-05-03T01:09:54.662Z,98.6
2023-05-03T01:12:20.766Z,98.8
2023-05-03T01:14:46.934Z,98.9
2023-05-03T01:17:12.873Z,99
2023-05-03T01:19:39.137Z,99.3
2023-05-03T01:22:05.195Z,99.6
2023-05-03T01:24:30.251Z,99.5
2023-05-03T01:26:56.282Z,99.7
2023-05-03T01:29:22.461Z,99.7
2023-05-03T01:31:48.612Z,99.5
2023-05-03T01:34:14.697Z,99.5
2023-05-03T01:36:40.806Z,99.1
2023-05-03T01:39:06.769Z,99.4
2023-05-03T01:41:32.925Z,99.5
2023-05-03T01:43:59.053Z,99.7
2023-05-03T01:46:25.120Z,99.7
2023-05-03T01:48:51.284Z,99.7
2023-05-03T01:51:17.308Z,99.7
2023-05-03T01:53:43.406Z,99.9
2023-05-03T01:56:08.580Z,99.8
2023-05-03T01:58:34.518Z,99.8
2023-05-03T02:01:00.751Z,99.6
2023-05-03T02:03:26.730Z,99.6
2023-05-03T02:05:52.914Z,99.5
2023-05-03T02:08:19.110Z,99.5
2023-05-03T02:10:45.221Z,99.5
2023-05-03T02:13:11.217Z,99.4
2023-05-03T02:15:37.455Z,99.4
2023-05-03T02:18:03.448Z,99.3
2023-05-03T02:20:29.497Z,99.3
2023-05-03T02:22:55.548Z,99.3
2023-05-03T02:25:21.791Z,99.6
2023-05-03T02:27:46.911Z,100
2023-05-03T02:30:12.786Z,100
2023-05-03T02:32:38.926Z,100
2023-05-03T02:35:05.053Z,100
2023-05-03T02:37:31.171Z,100
2023-05-03T02:39:57.181Z,100
2023-05-03T02:42:23.268Z,100
2023-05-03T02:44:49.424Z,100
2023-05-03T02:47:15.516Z,100
2023-05-03T02:49:41.679Z,100
2023-05-03T02:52:07.739Z,100
2023-05-03T02:54:33.913Z,100
2023-05-03T02:56:59.837Z,100
2023-05-03T02:59:24.966Z,100
2023-05-03T03:01:51.189Z,100
2023-05-03T03:04:17.163Z,100
2023-05-03T03:06:43.295Z,100
2023-05-03T03:09:09.342Z,100
2023-05-03T03:11:35.574Z,100
2023-05-03T03:14:01.512Z,100
2023-05-03T03:16:27.766Z,100
2023-05-03T03:18:53.723Z,100
2023-05-03T03:21:19.862Z,100
2023-05-03T03:23:46.004Z,100
2023-05-03T03:26:12.143Z,100
2023-05-03T03:28:38.143Z,100
2023-05-03T03:31:03.239Z,100
2023-05-03T03:33:29.379Z,100
2023-05-03T03:35:55.385Z,100
2023-05-03T03:38:21.520Z,100
2023-05-03T03:40:47.748Z,100
2023-05-03T03:43:13.750Z,100
2023-05-03T03:45:39.902Z,100
2023-05-03T03:48:06.038Z,100
2023-05-03T03:50:32.140Z,100
2023-05-03T03:52:58.132Z,100
2023-05-03T03:55:24.154Z,100
2023-05-03T03:57:50.415Z,100
2023-05-03T04:00:16.339Z,100
2023-05-03T04:02:41.572Z,100
2023-05-03T04:05:07.636Z,100
2023-05-03T04:07:33.764Z,100
2023-05-03T04:09:59.874Z,100
2023-05-03T04:12:25.856Z,100
2023-05-03T04:14:52.017Z,100
2023-05-03T04:17:18.034Z,100
2023-05-03T04:19:44.181Z,100
2023-05-03T04:22:10.234Z,100
2023-05-03T04:24:36.493Z,100
2023-05-03T04:27:02.594Z,100
2023-05-03T04:29:28.514Z,100
2023-05-03T04:31:54.627Z,100
2023-05-03T04:34:19.716Z,100
2023-05-03T04:36:45.921Z,100
2023-05-03T04:39:12.049Z,100
2023-05-03T04:41:38.100Z,100
2023-05-03T04:44:04.247Z,100
2023-05-03T04:46:30.344Z,100
2023-05-03T04:48:56.309Z,100
2023-05-03T04:51:22.527Z,100
2023-05-03T04:53:48.677Z,100
2023-05-03T04:56:14.730Z,100
2023-05-03T04:58:40.848Z,100
2023-05-03T05:01:06.894Z,100
2023-05-03T05:03:32.956Z,100
2023-05-03T05:05:58.066Z,100
2023-05-03T05:08:24.112Z,100
2023-05-03T05:10:50.160Z,100
2023-05-03T05:13:16.345Z,100
2023-05-03T05:15:42.345Z,99.8
2023-05-03T05:18:08.536Z,99.7
2023-05-03T05:20:34.671Z,99.6
2023-05-03T05:23:00.813Z,99.7
2023-05-03T05:25:26.748Z,99.7
2023-05-03T05:27:52.993Z,99.8
2023-05-03T05:30:19.083Z,99.8
2023-05-03T05:32:45.228Z,99.4
2023-05-03T05:35:11.256Z,99.1
2023-05-03T05:37:36.310Z,99.3
2023-05-03T05:40:14.815Z,99.2
2023-05-03T05:42:28.614Z,98.8
2023-05-03T05:44:54.605Z,98.7
2023-05-03T05:47:20.650Z,99.1
2023-05-03T05:49:46.757Z,99.3
2023-05-03T05:52:12.857Z,99.8
2023-05-03T05:54:39.004Z,100
2023-05-03T05:57:05.044Z,99.8
2023-05-03T05:59:31.168Z,99.2
2023-05-03T06:01:57.177Z,98.8
2023-05-03T06:04:23.267Z,98.7
2023-05-03T06:06:49.463Z,97.6
2023-05-03T06:09:14.476Z,97.5
2023-05-03T06:11:40.588Z,97.2
2023-05-03T06:14:06.809Z,96.9
2023-05-03T06:16:32.938Z,96.9
2023-05-03T06:18:58.871Z,96.8
2023-05-03T06:21:25.097Z,96.5
2023-05-03T06:23:51.063Z,96.3
2023-05-03T06:26:17.380Z,95.9
2023-05-03T06:28:43.417Z,95.1
2023-05-03T06:31:09.413Z,95.3
2023-05-03T06:33:35.427Z,94.6
2023-05-03T06:36:01.595Z,94.4
2023-05-03T06:38:27.762Z,94.5
2023-05-03T06:40:52.791Z,94.2
2023-05-03T06:43:18.928Z,94.2
2023-05-03T06:45:44.960Z,94.2
2023-05-03T06:48:11.170Z,93.8
2023-05-03T06:50:37.135Z,92.6
2023-05-03T06:53:03.336Z,92.9
2023-05-03T06:55:29.437Z,91.8
2023-05-03T06:57:55.413Z,90.4
2023-05-03T07:00:21.646Z,90.1
2023-05-03T07:02:47.705Z,90.3
2023-05-03T07:05:13.762Z,90.2
2023-05-03T07:07:39.781Z,89.2
2023-05-03T07:10:05.988Z,89.5
2023-05-03T07:12:31.045Z,89.3
2023-05-03T07:14:57.224Z,89.4
2023-05-03T07:17:23.304Z,89.3
2023-05-03T07:19:49.270Z,88.5
2023-05-03T07:22:15.493Z,88.6
2023-05-03T07:24:41.475Z,88.3
2023-05-03T07:27:07.624Z,87.8
2023-05-03T07:29:33.764Z,88
2023-05-03T07:31:59.787Z,88.3
2023-05-03T07:34:25.984Z,87.7
2023-05-03T07:36:51.998Z,87
2023-05-03T07:39:18.163Z,85.7
2023-05-03T07:41:44.130Z,86.3
2023-05-03T07:44:09.304Z,87
2023-05-03T07:46:35.512Z,86.1
2023-05-03T07:49:01.616Z,85.7
2023-05-03T07:51:27.745Z,85.6
2023-05-03T07:53:53.719Z,85.7
2023-05-03T07:56:19.854Z,86
2023-05-03T07:58:45.924Z,85.4
2023-05-03T08:01:11.950Z,84.6
2023-05-03T08:03:38.036Z,84.4
2023-05-03T08:06:04.161Z,84.4
2023-05-03T08:08:30.301Z,85.6
2023-05-03T08:10:56.453Z,85.2
2023-05-03T08:13:22.383Z,83.8
2023-05-03T08:15:47.502Z,83.7
2023-05-03T08:18:13.751Z,84.2
2023-05-03T08:20:39.675Z,83.3
2023-05-03T08:23:05.778Z,82
2023-05-03T08:25:31.932Z,82.8
2023-05-03T08:27:58.183Z,82.2
2023-05-03T08:30:23.173Z,81.8
2023-05-03T08:32:49.326Z,81.3
2023-05-03T08:35:15.363Z,81.5
2023-05-03T08:37:41.388Z,80.5
2023-05-03T08:40:07.634Z,80.6
2023-05-03T08:42:33.749Z,80.8
2023-05-03T08:44:59.740Z,79.5
2023-05-03T08:47:26.549Z,79.2
2023-05-03T08:49:51.908Z,79.1
2023-05-03T08:52:18.004Z,79.3
2023-05-03T08:57:10.378Z,78.4
2023-05-03T08:59:36.276Z,78
2023-05-03T09:02:01.327Z,77.9
2023-05-03T09:04:27.466Z,77.6
2023-05-03T09:06:53.634Z,77
2023-05-03T09:09:19.659Z,77.6
2023-05-03T09:11:45.707Z,76.5
2023-05-03T09:14:11.975Z,75.9
2023-05-03T09:16:37.931Z,75.7
2023-05-03T09:19:03.996Z,75.9
2023-05-03T09:21:30.209Z,74.9
2023-05-03T09:23:56.361Z,76
2023-05-03T09:26:22.444Z,75.6
2023-05-03T09:28:48.487Z,74.2
2023-05-03T09:31:14.475Z,74
2023-05-03T09:33:39.733Z,74.3
2023-05-03T09:36:05.828Z,73.6
2023-05-03T09:38:31.883Z,74.8
2023-05-03T09:40:57.930Z,74.6
2023-05-03T09:43:24.000Z,73.9
2023-05-03T09:45:50.055Z,74.8
2023-05-03T09:48:16.172Z,74.4
2023-05-03T09:50:42.296Z,75.9
2023-05-03T09:53:08.496Z,75.3
2023-05-03T09:55:34.611Z,75.1
2023-05-03T09:58:00.717Z,75.9
2023-05-03T10:00:26.625Z,75.2
2023-05-03T10:02:52.866Z,75.2
2023-05-03T10:05:17.988Z,73.9
2023-05-03T10:07:44.037Z,73.9
2023-05-03T10:10:10.121Z,73.3
2023-05-03T10:12:36.138Z,74.2
2023-05-03T10:15:02.194Z,74.6
2023-05-03T10:17:28.367Z,75.2
2023-05-03T10:19:54.410Z,73
2023-05-03T10:22:20.480Z,71.6
2023-05-03T10:24:46.648Z,72.2
2023-05-03T10:27:12.670Z,72.2
2023-05-03T10:29:38.759Z,70.9
2023-05-03T10:32:04.906Z,71.1
2023-05-03T10:34:30.955Z,72
2023-05-03T10:36:56.100Z,70.4
2023-05-03T10:39:22.234Z,71.8
2023-05-03T10:41:48.253Z,72.1
2023-05-03T10:44:14.453Z,71.3
2023-05-03T10:46:40.513Z,70.6
2023-05-03T10:49:06.530Z,69.1
2023-05-03T10:51:32.626Z,69.5
2023-05-03T10:53:58.721Z,67.8
2023-05-03T10:56:24.800Z,67.3
2023-05-03T10:58:50.910Z,66.1
2023-05-03T11:01:17.001Z,67.5
2023-05-03T11:03:43.106Z,66.4
2023-05-03T11:06:09.255Z,67.9
2023-05-03T11:08:34.302Z,66.9
2023-05-03T11:11:00.410Z,63.1
2023-05-03T11:13:26.498Z,62.6
2023-05-03T11:15:52.604Z,63.2
2023-05-03T11:18:18.688Z,63
2023-05-03T11:20:44.790Z,62.2
2023-05-03T11:23:10.982Z,62.8
2023-05-03T11:25:36.962Z,61.8
2023-05-03T11:28:03.080Z,59.9
2023-05-03T11:30:29.174Z,61.4
2023-05-03T11:32:55.253Z,58.4
2023-05-03T11:35:21.395Z,60
2023-05-03T11:37:47.468Z,60.3
2023-05-03T11:40:12.571Z,60.2
2023-05-03T11:42:38.650Z,59.6
2023-05-03T11:45:04.786Z,60
2023-05-03T11:47:30.845Z,58.7
2023-05-03T11:49:56.921Z,58.5
2023-05-03T11:52:23.110Z,59.3
2023-05-03T11:54:49.131Z,60.5
2023-05-03T11:59:41.311Z,57.4
2023-05-03T12:02:07.419Z,58
2023-05-03T12:04:33.552Z,57.6
2023-05-03T12:06:59.625Z,57.4
2023-05-03T12:09:25.744Z,57
2023-05-03T12:11:51.804Z,55.1
2023-05-03T12:16:43.967Z,55.2
2023-05-03T12:19:10.086Z,53.1
2023-05-03T12:21:36.189Z,55.4
2023-05-03T12:24:02.280Z,53.8
2023-05-03T12:26:28.358Z,54.3
2023-05-03T12:28:54.487Z,54.6
2023-05-03T12:31:20.565Z,54.3
2023-05-03T12:33:46.657Z,53.6
2023-05-03T12:36:12.769Z,52.9
2023-05-03T12:38:37.921Z,53.6
2023-05-03T12:41:03.951Z,52.1
2023-05-03T12:43:30.074Z,49.5
2023-05-03T12:45:56.252Z,51.6
2023-05-03T12:48:22.320Z,50.3
2023-05-03T12:50:48.340Z,49.9
2023-05-03T12:53:14.436Z,49.7
2023-05-03T12:55:49.003Z,49
2023-05-03T12:58:06.686Z,49.7
2023-05-03T13:00:32.724Z,49.8
2023-05-03T13:02:58.884Z,48.1
2023-05-03T13:05:24.972Z,48.4
2023-05-03T13:07:50.996Z,47.5
2023-05-03T13:10:16.148Z,47.3
2023-05-03T13:12:42.236Z,47.7
2023-05-03T13:15:08.450Z,46.6
2023-05-03T13:17:34.396Z,46.2
2023-05-03T13:20:00.488Z,46.2
2023-05-03T13:22:26.603Z,45.9
2023-05-03T13:24:52.797Z,45.2
2023-05-03T13:27:18.768Z,44.8
2023-05-03T13:29:44.908Z,44.8
2023-05-03T13:32:10.987Z,44.9
2023-05-03T13:34:37.114Z,44.4
2023-05-03T13:37:03.197Z,45
2023-05-03T13:39:29.238Z,45
2023-05-03T13:41:54.485Z,43.8
2023-05-03T13:44:20.457Z,43.9
2023-05-03T13:46:46.643Z,42.8
2023-05-03T13:49:12.777Z,43.3
2023-05-03T13:51:39.033Z,43.9
2023-05-03T13:54:04.986Z,44.6
2023-05-03T13:56:31.013Z,44.9
2023-05-03T13:58:57.173Z,43.5
2023-05-03T14:01:23.246Z,44.6
2023-05-03T14:03:49.365Z,43
2023-05-03T14:06:15.325Z,40.4
2023-05-03T14:08:41.510Z,40.4
2023-05-03T14:11:07.579Z,43
2023-05-03T14:13:32.712Z,42.2
2023-05-03T14:15:58.820Z,40.5
2023-05-03T14:18:24.805Z,41.5
2023-05-03T14:20:50.957Z,40.1
2023-05-03T14:23:16.989Z,39.1
2023-05-03T14:25:43.122Z,37.8
2023-05-03T14:28:09.197Z,38.2
2023-05-03T14:30:35.273Z,37.4
2023-05-03T14:33:01.436Z,38.9
2023-05-03T14:35:27.465Z,39.8
2023-05-03T14:37:53.556Z,39.4
2023-05-03T14:40:19.724Z,39.9
2023-05-03T14:42:45.764Z,39.2
2023-05-03T14:45:10.916Z,38.4
2023-05-03T14:47:37.037Z,37.5
2023-05-03T14:50:03.062Z,37.5
2023-05-03T14:52:29.140Z,38.4
2023-05-03T14:54:55.290Z,39.5
2023-05-03T14:57:21.371Z,38.2
2023-05-03T14:59:47.448Z,38
2023-05-03T15:02:13.540Z,39.4
2023-05-03T15:04:39.650Z,39.4
2023-05-03T15:07:05.753Z,39.4
2023-05-03T15:09:31.858Z,39.5
2023-05-03T15:11:57.943Z,38
2023-05-03T15:14:24.027Z,40.1
2023-05-03T15:16:50.209Z,39.9
2023-05-03T15:19:16.329Z,39.5
2023-05-03T15:21:41.326Z,40.9
2023-05-03T15:24:07.433Z,42.3
2023-05-03T15:26:33.549Z,41
2023-05-03T15:28:59.642Z,39.8
2023-05-03T15:31:25.791Z,41.3
2023-05-03T15:33:51.827Z,41.7
2023-05-03T15:36:17.900Z,39.3
2023-05-03T15:38:44.028Z,38.8
2023-05-03T15:41:10.179Z,36.8
2023-05-03T15:43:36.352Z,37
2023-05-03T15:46:02.432Z,39.3
2023-05-03T15:48:28.389Z,38.6
2023-05-03T15:50:54.602Z,39.3
2023-05-03T15:53:19.624Z,39.1
2023-05-03T15:55:45.676Z,39.1
2023-05-03T15:58:11.782Z,39.3
2023-05-03T16:00:37.939Z,39.6
2023-05-03T16:03:04.057Z,40
2023-05-03T16:05:30.225Z,39.8
2023-05-03T16:07:56.294Z,40.5
2023-05-03T16:10:22.286Z,38.7
2023-05-03T16:12:48.480Z,39.8
2023-05-03T16:15:14.548Z,41.7
2023-05-03T16:17:40.590Z,42.3
2023-05-03T16:20:06.722Z,42.1
2023-05-03T16:22:32.825Z,42.5
2023-05-03T16:24:58.010Z,41
2023-05-03T16:27:23.965Z,41
2023-05-03T16:29:50.056Z,41.6
2023-05-03T16:32:16.178Z,41.4
2023-05-03T16:34:42.316Z,40.1
2023-05-03T16:37:08.442Z,42.1
2023-05-03T16:39:33.447Z,43.3
2023-05-03T16:41:59.594Z,42.3
2023-05-03T16:44:25.772Z,43
2023-05-03T16:46:51.903Z,43
2023-05-03T16:49:17.897Z,43.9
2023-05-03T16:51:44.005Z,44.2
2023-05-03T16:54:10.122Z,44.9
2023-05-03T16:56:36.121Z,44.3
2023-05-03T16:59:02.289Z,45
2023-05-03T17:01:28.318Z,44.7
2023-05-03T17:06:20.636Z,45.9
2023-05-03T17:08:46.767Z,45.5
2023-05-03T17:11:11.959Z,45.9
2023-05-03T17:13:37.939Z,46
2023-05-03T17:16:03.998Z,45.8
2023-05-03T17:18:30.193Z,46.9
2023-05-03T17:20:56.150Z,47.5
2023-05-03T17:23:22.255Z,48.2
2023-05-03T17:25:48.332Z,47.7
2023-05-03T17:28:14.379Z,48.8
2023-05-03T17:30:40.548Z,49.3
2023-05-03T17:33:06.779Z,50.1
2023-05-03T17:35:32.714Z,51
2023-05-03T17:37:58.833Z,50.8
2023-05-03T17:40:24.955Z,51.2
2023-05-03T17:45:17.199Z,51.9
2023-05-03T17:47:42.145Z,52.6
2023-05-03T17:50:08.312Z,52.7
2023-05-03T17:52:34.457Z,53.6
2023-05-03T17:55:00.578Z,53.4
2023-05-03T17:57:26.534Z,53.3
2023-05-03T17:59:52.736Z,54.2
2023-05-03T18:02:18.825Z,54.7
2023-05-03T18:04:44.825Z,54.5
2023-05-03T18:07:10.972Z,54.8
2023-05-03T18:09:37.070Z,55.3
2023-05-03T18:12:03.268Z,55.3
2023-05-03T18:14:29.183Z,55.4
2023-05-03T18:16:55.433Z,55.9
2023-05-03T18:19:20.581Z,55.8
2023-05-03T18:21:46.577Z,56.5
2023-05-03T18:24:12.747Z,56.1
2023-05-03T18:26:38.685Z,56.5
2023-05-03T18:29:04.913Z,58
2023-05-03T18:31:30.964Z,61.2
2023-05-03T18:33:57.170Z,61.2
2023-05-03T18:36:23.293Z,63.2
2023-05-03T18:38:49.345Z,65.3
2023-05-03T18:41:15.408Z,65.2
2023-05-03T18:43:41.521Z,65.5
2023-05-03T18:46:07.587Z,66.6
2023-05-03T18:48:33.635Z,67.9
2023-05-03T18:50:59.763Z,69.9
2023-05-03T18:53:25.732Z,70.4
2023-05-03T18:55:52.028Z,71.6
2023-05-03T18:58:18.054Z,72.3
2023-05-03T19:00:43.164Z,73
2023-05-03T19:03:09.283Z,73.8
2023-05-03T19:05:35.375Z,74.2
2023-05-03T19:08:01.459Z,75
2023-05-03T19:10:27.419Z,75.1
2023-05-03T19:12:53.706Z,76
2023-05-03T19:15:19.764Z,76.6
2023-05-03T19:17:45.830Z,76.6
2023-05-03T19:20:11.786Z,77.1
2023-05-03T19:22:37.882Z,77
2023-05-03T19:25:04.051Z,76.9
2023-05-03T19:27:30.071Z,77.5
2023-05-03T19:29:56.183Z,78.2
2023-05-03T19:32:22.260Z,78
2023-05-03T19:34:47.374Z,78.7
2023-05-03T19:37:13.492Z,78.6
2023-05-03T19:39:39.566Z,78.5
2023-05-03T19:42:05.661Z,78.8
2023-05-03T19:44:31.746Z,78.8
2023-05-03T19:46:57.841Z,79.3
2023-05-03T19:49:23.937Z,79.1
2023-05-03T19:51:50.040Z,79.3
2023-05-03T19:54:16.136Z,79.6
2023-05-03T19:56:42.221Z,79.9
2023-05-03T19:59:08.388Z,79.6
2023-05-03T20:01:34.443Z,79.9
2023-05-03T20:04:00.505Z,81
2023-05-03T20:06:26.613Z,80.5
2023-05-03T20:08:52.700Z,80.8
2023-05-03T20:11:18.803Z,80.8
2023-05-03T20:13:44.933Z,81.3
2023-05-03T20:16:10.984Z,81.5
2023-05-03T20:18:36.105Z,81.6
2023-05-03T20:21:02.198Z,81.9
2023-05-03T20:23:28.290Z,81.3
2023-05-03T20:25:54.400Z,82.6
2023-05-03T20:28:20.476Z,83
2023-05-03T20:30:46.580Z,82.7
2023-05-03T20:33:12.679Z,83.8
2023-05-03T20:35:38.777Z,83.2
2023-05-03T20:38:04.878Z,83.5
2023-05-03T20:40:30.989Z,83.4
2023-05-03T20:42:57.057Z,83.8
2023-05-03T20:45:23.139Z,84.2
2023-05-03T20:47:49.252Z,84.7
2023-05-03T20:50:14.349Z,84.3
2023-05-03T20:52:40.436Z,84.5
2023-05-03T20:55:06.547Z,84.4
2023-05-03T20:57:32.631Z,84.3
2023-05-03T20:59:58.739Z,84.9
2023-05-03T21:02:24.823Z,85.1
2023-05-03T21:04:50.915Z,85.1
2023-05-03T21:07:17.011Z,85.2
2023-05-03T21:09:43.110Z,85.6
2023-05-03T21:12:09.195Z,85.5
2023-05-03T21:14:35.297Z,85.9
2023-05-03T21:17:01.393Z,86.1
2023-05-03T21:19:27.483Z,86.2
2023-05-03T21:21:52.611Z,86.4
2023-05-03T21:24:18.711Z,86.4
2023-05-03T21:26:44.810Z,86.4
2023-05-03T21:29:10.877Z,86.7
2023-05-03T21:31:36.967Z,86.7
2023-05-03T21:34:03.070Z,86.2
2023-05-03T21:36:29.161Z,87
2023-05-03T21:38:55.257Z,86.8
2023-05-03T21:41:21.349Z,86.8
2023-05-03T21:43:47.443Z,87.2
2023-05-03T21:46:13.584Z,86.8
2023-05-03T21:48:39.635Z,86.8
2023-05-03T21:51:05.742Z,87.7
2023-05-03T21:53:30.837Z,87.4
2023-05-03T21:55:57.028Z,87.6
2023-05-03T21:58:23.026Z,88
2023-05-03T22:00:49.147Z,88.4
2023-05-03T22:03:15.224Z,88.5
2023-05-03T22:05:41.346Z,88.5
2023-05-03T22:08:07.433Z,88.8
2023-05-03T22:10:33.499Z,89.1
2023-05-03T22:12:59.591Z,88.8
2023-05-03T22:15:25.714Z,89
2023-05-03T22:17:51.800Z,89.3
2023-05-03T22:20:17.887Z,89.2
2023-05-03T22:22:44.029Z,89.8
2023-05-03T22:25:09.090Z,89.9
2023-05-03T22:27:35.183Z,90.3
2023-05-03T22:30:01.297Z,90.1
2023-05-03T22:32:27.396Z,90
2023-05-03T22:34:53.510Z,89.5
2023-05-03T22:37:19.583Z,89.6
2023-05-03T22:39:45.718Z,90
2023-05-03T22:42:11.797Z,90.3
2023-05-03T22:44:37.861Z,90.4
2023-05-03T22:47:03.959Z,90.8
2023-05-03T22:49:30.064Z,91.3
2023-05-03T22:51:56.150Z,91.7
2023-05-03T22:54:22.257Z,92
2023-05-03T22:56:47.357Z,92.2
2023-05-03T22:59:13.473Z,92
2023-05-03T23:01:39.542Z,91.7
2023-05-03T23:04:05.657Z,92.2
2023-05-03T23:06:31.762Z,91.9
2023-05-03T23:08:57.832Z,91.6
2023-05-03T23:11:23.930Z,91.8
2023-05-03T23:13:50.023Z,91.8
2023-05-03T23:16:16.129Z,91.8
2023-05-03T23:18:42.224Z,92.3
2023-05-03T23:21:08.302Z,92.4
2023-05-03T23:23:34.450Z,92.6
2023-05-03T23:26:00.564Z,92.7
2023-05-03T23:28:25.604Z,92.6
2023-05-03T23:30:51.695Z,92.5
2023-05-03T23:33:17.802Z,92.5
2023-05-03T23:35:43.935Z,92.2
2023-05-03T23:38:10.060Z,92.5
